createdAt,value
2023-04-23T00:00:56.220Z,32.11
2023-04-23T00:01:55.277Z,31.82
2023-04-23T00:02:54.814Z,30.80
2023-04-23T00:03:56.332Z,29.17
2023-04-23T00:04:56.338Z,29.17
2023-04-23T00:05:56.156Z,29.47
2023-04-23T00:06:56.131Z,28.76
2023-04-23T00:07:56.101Z,29.06
2023-04-23T00:08:56.105Z,27.74
2023-04-23T00:09:56.084Z,28.56
2023-04-23T00:10:56.084Z,27.53
2023-04-23T00:11:56.062Z,26.92
2023-04-23T00:12:58.061Z,26.21
2023-04-23T00:13:56.059Z,27.33
2023-04-23T00:14:56.010Z,27.44
2023-04-23T00:15:56.068Z,26.11
2023-04-23T00:16:56.018Z,27.03
2023-04-23T00:17:56.047Z,27.44
2023-04-23T00:18:55.960Z,26.51
2023-04-23T00:19:55.950Z,26.82
2023-04-23T00:20:55.936Z,26.61
2023-04-23T00:21:55.930Z,27.01
2023-04-23T00:22:55.907Z,26.91
2023-04-23T00:23:55.897Z,28.05
2023-04-23T00:24:55.899Z,27.03
2023-04-23T00:25:55.880Z,25.90
2023-04-23T00:26:55.868Z,29.06
2023-04-23T00:27:55.827Z,26.01
2023-04-23T00:28:55.814Z,26.31
2023-04-23T00:29:55.826Z,27.64
2023-04-23T00:30:55.808Z,27.74
2023-04-23T00:31:55.820Z,28.86
2023-04-23T00:32:55.814Z,26.62
2023-04-23T00:33:55.758Z,28.27
2023-04-23T00:34:54.283Z,28.76
2023-04-23T00:35:55.752Z,30.51
2023-04-23T00:36:55.723Z,30.69
2023-04-23T00:37:55.709Z,31.10
2023-04-23T00:38:55.684Z,30.80
2023-04-23T00:39:55.681Z,30.69
2023-04-23T00:40:55.672Z,29.88
2023-04-23T00:41:55.657Z,29.37
2023-04-23T00:42:55.643Z,29.79
2023-04-23T00:43:55.622Z,28.67
2023-04-23T00:44:55.626Z,29.59
2023-04-23T00:45:55.636Z,30.19
2023-04-23T00:46:55.588Z,30.08
2023-04-23T00:47:55.662Z,30.49
2023-04-23T00:48:55.552Z,29.58
2023-04-23T00:49:55.542Z,29.59
2023-04-23T00:50:54.076Z,29.39
2023-04-23T00:51:55.516Z,28.77
2023-04-23T00:52:54.531Z,28.16
2023-04-23T00:53:54.539Z,29.79
2023-04-23T00:54:54.546Z,28.36
2023-04-23T00:55:55.471Z,27.86
2023-04-23T00:56:55.449Z,28.27
2023-04-23T00:57:54.550Z,27.86
2023-04-23T00:58:54.540Z,28.67
2023-04-23T00:59:55.413Z,27.86
2023-04-23T01:00:55.403Z,28.16
2023-04-23T01:01:55.389Z,28.77
2023-04-23T01:02:55.506Z,28.16
2023-04-23T01:03:55.665Z,28.57
2023-04-23T01:04:55.350Z,27.14
2023-04-23T01:05:54.025Z,26.84
2023-04-23T01:06:54.066Z,28.47
2023-04-23T01:07:55.305Z,27.86
2023-04-23T01:08:55.290Z,26.93
2023-04-23T01:09:55.286Z,26.84
2023-04-23T01:10:55.270Z,26.43
2023-04-23T01:11:55.247Z,26.84
2023-04-23T01:12:55.235Z,26.73
2023-04-23T01:13:54.253Z,26.63
2023-04-23T01:14:55.203Z,27.65
2023-04-23T01:15:55.206Z,27.04
2023-04-23T01:16:55.190Z,25.81
2023-04-23T01:17:54.483Z,25.92
2023-04-23T01:18:53.719Z,26.32
2023-04-23T01:19:55.155Z,26.43
2023-04-23T01:20:55.145Z,26.12
2023-04-23T01:21:53.683Z,25.61
2023-04-23T01:22:55.116Z,26.32
2023-04-23T01:23:55.101Z,25.71
2023-04-23T01:24:53.705Z,26.43
2023-04-23T01:25:55.089Z,27.24
2023-04-23T01:26:53.636Z,26.32
2023-04-23T01:27:55.041Z,27.04
2023-04-23T01:28:55.032Z,26.53
2023-04-23T01:29:53.569Z,27.24
2023-04-23T01:30:53.571Z,25.81
2023-04-23T01:31:55.005Z,26.53
2023-04-23T01:32:53.567Z,25.20
2023-04-23T01:33:54.950Z,24.59
2023-04-23T01:34:53.498Z,24.69
2023-04-23T01:35:53.567Z,24.29
2023-04-23T01:36:54.932Z,25.40
2023-04-23T01:37:54.896Z,25.00
2023-04-23T01:38:54.878Z,26.43
2023-04-23T01:39:54.876Z,25.31
2023-04-23T01:40:54.856Z,25.40
2023-04-23T01:41:54.854Z,26.02
2023-04-23T01:42:54.828Z,27.04
2023-04-23T01:43:54.815Z,26.93
2023-04-23T01:44:54.800Z,26.54
2023-04-23T01:45:53.390Z,26.02
2023-04-23T01:46:53.528Z,26.93
2023-04-23T01:47:54.798Z,27.34
2023-04-23T01:48:54.746Z,27.55
2023-04-23T01:49:54.732Z,27.86
2023-04-23T01:50:54.732Z,28.36
2023-04-23T01:51:54.708Z,28.27
2023-04-23T01:52:54.688Z,27.95
2023-04-23T01:53:54.671Z,29.08
2023-04-23T01:54:54.670Z,28.78
2023-04-23T01:55:54.638Z,30.22
2023-04-23T01:56:54.636Z,29.91
2023-04-23T01:57:54.618Z,30.22
2023-04-23T01:58:54.607Z,30.91
2023-04-23T01:59:54.593Z,30.71
2023-04-23T02:00:54.582Z,30.71
2023-04-23T02:01:53.412Z,30.20
2023-04-23T02:02:53.441Z,30.20
2023-04-23T02:03:54.635Z,30.20
2023-04-23T02:04:54.527Z,30.00
2023-04-23T02:05:54.529Z,29.90
2023-04-23T02:06:53.384Z,30.82
2023-04-23T02:07:54.488Z,31.12
2023-04-23T02:08:54.476Z,31.32
2023-04-23T02:09:53.382Z,30.10
2023-04-23T02:10:53.308Z,30.51
2023-04-23T02:11:54.432Z,29.79
2023-04-23T02:12:54.407Z,28.99
2023-04-23T02:13:54.389Z,28.89
2023-04-23T02:14:54.380Z,26.95
2023-04-23T02:15:54.401Z,27.55
2023-04-23T02:16:54.359Z,28.69
2023-04-23T02:17:53.430Z,27.87
2023-04-23T02:18:53.395Z,27.36
2023-04-23T02:19:53.379Z,27.66
2023-04-23T02:20:53.380Z,27.15
2023-04-23T02:21:54.289Z,27.36
2023-04-23T02:22:54.281Z,27.05
2023-04-23T02:23:54.269Z,28.48
2023-04-23T02:24:54.252Z,28.48
2023-04-23T02:25:53.402Z,29.50
2023-04-23T02:26:54.239Z,29.91
2023-04-23T02:27:54.218Z,28.89
2023-04-23T02:28:54.198Z,28.69
2023-04-23T02:29:54.185Z,29.50
2023-04-23T02:30:54.168Z,30.42
2023-04-23T02:31:54.255Z,31.13
2023-04-23T02:32:54.225Z,28.99
2023-04-23T02:33:54.129Z,28.58
2023-04-23T02:34:54.115Z,27.36
2023-04-23T02:35:54.110Z,28.07
2023-04-23T02:36:54.101Z,27.76
2023-04-23T02:37:54.076Z,27.56
2023-04-23T02:38:54.053Z,27.97
2023-04-23T02:39:54.056Z,28.89
2023-04-23T02:40:54.035Z,27.76
2023-04-23T02:41:52.573Z,26.75
2023-04-23T02:42:54.008Z,27.15
2023-04-23T02:43:54.004Z,26.14
2023-04-23T02:44:53.983Z,26.14
2023-04-23T02:45:53.967Z,26.85
2023-04-23T02:46:54.028Z,26.85
2023-04-23T02:47:54.020Z,26.03
2023-04-23T02:48:53.934Z,25.32
2023-04-23T02:49:53.911Z,25.82
2023-04-23T02:50:53.901Z,25.82
2023-04-23T02:51:53.910Z,26.35
2023-04-23T02:52:53.878Z,26.86
2023-04-23T02:53:53.862Z,25.94
2023-04-23T02:54:53.854Z,25.62
2023-04-23T02:55:53.836Z,26.64
2023-04-23T02:56:53.841Z,26.44
2023-04-23T02:57:52.346Z,26.64
2023-04-23T02:58:53.778Z,26.23
2023-04-23T02:59:53.774Z,25.82
2023-04-23T03:00:53.790Z,25.93
2023-04-23T03:01:53.768Z,26.23
2023-04-23T03:02:53.825Z,27.06
2023-04-23T03:03:53.837Z,26.64
2023-04-23T03:04:53.703Z,27.15
2023-04-23T03:05:53.701Z,28.58
2023-04-23T03:06:53.680Z,28.48
2023-04-23T03:07:53.673Z,28.69
2023-04-23T03:08:53.652Z,28.99
2023-04-23T03:09:52.666Z,30.32
2023-04-23T03:10:52.311Z,29.19
2023-04-23T03:11:53.628Z,28.58
2023-04-23T03:12:53.107Z,30.83
2023-04-23T03:13:52.666Z,29.91
2023-04-23T03:14:52.674Z,30.52
2023-04-23T03:15:53.560Z,29.40
2023-04-23T03:16:53.627Z,29.40
2023-04-23T03:17:52.755Z,29.81
2023-04-23T03:18:52.661Z,30.11
2023-04-23T03:19:53.497Z,30.73
2023-04-23T03:20:53.494Z,30.22
2023-04-23T03:21:52.665Z,31.76
2023-04-23T03:22:53.463Z,32.68
2023-04-23T03:23:53.459Z,32.28
2023-04-23T03:24:52.673Z,33.07
2023-04-23T03:25:51.965Z,33.07
2023-04-23T03:26:53.422Z,32.36
2023-04-23T03:27:53.407Z,32.15
2023-04-23T03:28:53.384Z,32.67
2023-04-23T03:29:52.066Z,31.65
2023-04-23T03:30:52.065Z,31.13
2023-04-23T03:31:53.363Z,32.28
2023-04-23T03:32:53.409Z,31.87
2023-04-23T03:33:53.313Z,30.74
2023-04-23T03:34:53.307Z,29.60
2023-04-23T03:35:53.286Z,30.62
2023-04-23T03:36:53.277Z,30.11
2023-04-23T03:37:52.295Z,30.01
2023-04-23T03:38:53.250Z,32.26
2023-04-23T03:39:53.242Z,31.54
2023-04-23T03:40:53.226Z,31.34
2023-04-23T03:41:53.205Z,31.95
2023-04-23T03:42:53.214Z,31.85
2023-04-23T03:43:53.188Z,30.22
2023-04-23T03:44:53.171Z,30.22
2023-04-23T03:45:53.239Z,29.21
2023-04-23T03:46:53.128Z,29.71
2023-04-23T03:47:53.175Z,29.50
2023-04-23T03:48:53.145Z,29.91
2023-04-23T03:49:53.253Z,29.71
2023-04-23T03:50:53.083Z,28.69
2023-04-23T03:51:53.068Z,27.78
2023-04-23T03:52:53.056Z,28.70
2023-04-23T03:53:53.034Z,29.61
2023-04-23T03:54:53.028Z,28.59
2023-04-23T03:55:53.015Z,28.28
2023-04-23T03:56:53.009Z,28.78
2023-04-23T03:57:52.987Z,27.98
2023-04-23T03:58:52.967Z,28.80
2023-04-23T03:59:52.966Z,27.98
2023-04-23T04:00:52.938Z,28.59
2023-04-23T04:01:52.926Z,27.97
2023-04-23T04:02:53.105Z,28.28
2023-04-23T04:03:53.162Z,29.19
2023-04-23T04:04:53.105Z,28.28
2023-04-23T04:05:52.884Z,30.11
2023-04-23T04:06:52.853Z,28.48
2023-04-23T04:07:52.859Z,28.28
2023-04-23T04:08:52.839Z,27.97
2023-04-23T04:09:51.495Z,28.58
2023-04-23T04:10:52.811Z,30.01
2023-04-23T04:11:53.351Z,29.71
2023-04-23T04:12:52.802Z,30.32
2023-04-23T04:13:52.777Z,28.69
2023-04-23T04:14:52.769Z,28.78
2023-04-23T04:15:52.871Z,28.69
2023-04-23T04:16:52.755Z,28.89
2023-04-23T04:17:52.755Z,28.99
2023-04-23T04:18:55.068Z,28.58
2023-04-23T04:19:52.700Z,28.38
2023-04-23T04:20:52.725Z,26.95
2023-04-23T04:21:51.488Z,26.34
2023-04-23T04:22:51.494Z,26.34
2023-04-23T04:23:52.644Z,26.64
2023-04-23T04:24:51.492Z,26.44
2023-04-23T04:25:51.165Z,27.87
2023-04-23T04:26:52.598Z,26.64
2023-04-23T04:27:52.592Z,26.85
2023-04-23T04:28:52.560Z,27.56
2023-04-23T04:29:51.489Z,28.07
2023-04-23T04:30:52.543Z,27.15
2023-04-23T04:31:52.698Z,27.97
2023-04-23T04:32:52.569Z,27.76
2023-04-23T04:33:51.497Z,27.05
2023-04-23T04:34:52.476Z,26.64
2023-04-23T04:35:51.496Z,26.54
2023-04-23T04:36:52.458Z,26.95
2023-04-23T04:37:51.498Z,26.34
2023-04-23T04:38:51.505Z,27.46
2023-04-23T04:39:50.997Z,27.25
2023-04-23T04:40:52.403Z,27.66
2023-04-23T04:41:52.387Z,28.78
2023-04-23T04:42:52.383Z,28.58
2023-04-23T04:43:52.407Z,30.32
2023-04-23T04:44:52.353Z,28.38
2023-04-23T04:45:52.375Z,28.57
2023-04-23T04:46:52.350Z,28.78
2023-04-23T04:47:52.338Z,28.78
2023-04-23T04:48:52.281Z,27.56
2023-04-23T04:49:51.509Z,27.76
2023-04-23T04:50:52.261Z,28.06
2023-04-23T04:51:51.324Z,27.97
2023-04-23T04:52:52.235Z,28.07
2023-04-23T04:53:52.230Z,27.66
2023-04-23T04:54:52.212Z,29.19
2023-04-23T04:55:52.204Z,28.58
2023-04-23T04:56:52.178Z,28.28
2023-04-23T04:57:50.716Z,29.28
2023-04-23T04:58:52.157Z,30.71
2023-04-23T04:59:52.153Z,29.39
2023-04-23T05:00:52.240Z,32.06
2023-04-23T05:01:52.114Z,31.24
2023-04-23T05:02:52.242Z,31.13
2023-04-23T05:03:52.294Z,30.52
2023-04-23T05:04:52.066Z,31.13
2023-04-23T05:05:52.054Z,33.07
2023-04-23T05:06:52.041Z,32.67
2023-04-23T05:07:52.043Z,32.87
2023-04-23T05:08:52.021Z,33.26
2023-04-23T05:09:52.002Z,32.65
2023-04-23T05:10:51.989Z,34.39
2023-04-23T05:11:51.992Z,34.61
2023-04-23T05:12:52.102Z,33.57
2023-04-23T05:13:51.949Z,33.06
2023-04-23T05:14:53.003Z,33.87
2023-04-23T05:15:51.933Z,34.69
2023-04-23T05:16:51.939Z,33.37
2023-04-23T05:17:52.006Z,34.18
2023-04-23T05:18:51.886Z,32.86
2023-04-23T05:19:51.870Z,36.32
2023-04-23T05:20:51.857Z,34.80
2023-04-23T05:21:51.841Z,34.69
2023-04-23T05:22:51.847Z,33.67
2023-04-23T05:23:51.900Z,34.47
2023-04-23T05:24:51.824Z,35.28
2023-04-23T05:25:53.739Z,35.92
2023-04-23T05:26:51.777Z,34.08
2023-04-23T05:27:51.765Z,36.00
2023-04-23T05:28:50.815Z,35.08
2023-04-23T05:29:50.814Z,35.39
2023-04-23T05:30:50.841Z,38.06
2023-04-23T05:31:50.848Z,38.57
2023-04-23T05:32:51.715Z,38.57
2023-04-23T05:33:51.675Z,34.69
2023-04-23T05:34:51.666Z,34.37
2023-04-23T05:35:51.645Z,39.69
2023-04-23T05:36:50.381Z,40.00
2023-04-23T05:37:50.853Z,40.30
2023-04-23T05:38:51.616Z,39.59
2023-04-23T05:39:50.850Z,40.30
2023-04-23T05:40:51.587Z,39.67
2023-04-23T05:41:50.830Z,39.79
2023-04-23T05:42:51.573Z,38.67
2023-04-23T05:43:51.558Z,39.59
2023-04-23T05:44:51.555Z,40.41
2023-04-23T05:45:50.838Z,41.02
2023-04-23T05:46:51.502Z,41.22
2023-04-23T05:47:50.849Z,41.63
2023-04-23T05:48:51.473Z,41.63
2023-04-23T05:49:51.459Z,43.06
2023-04-23T05:50:51.441Z,43.26
2023-04-23T05:51:51.435Z,42.35
2023-04-23T05:52:51.411Z,43.06
2023-04-23T05:53:51.414Z,40.71
2023-04-23T05:54:51.387Z,40.00
2023-04-23T05:55:51.559Z,39.39
2023-04-23T05:56:53.480Z,38.98
2023-04-23T05:57:51.349Z,39.69
2023-04-23T05:58:51.346Z,38.45
2023-04-23T05:59:51.316Z,41.41
2023-04-23T06:00:50.361Z,40.69
2023-04-23T06:01:51.285Z,41.42
2023-04-23T06:02:51.366Z,41.53
2023-04-23T06:03:51.569Z,41.51
2023-04-23T06:04:51.363Z,40.90
2023-04-23T06:05:51.307Z,42.94
2023-04-23T06:06:51.222Z,41.51
2023-04-23T06:07:51.219Z,42.65
2023-04-23T06:08:51.208Z,41.44
2023-04-23T06:09:51.173Z,40.10
2023-04-23T06:10:51.163Z,41.22
2023-04-23T06:11:51.148Z,41.22
2023-04-23T06:12:51.132Z,46.34
2023-04-23T06:13:51.135Z,44.81
2023-04-23T06:14:51.122Z,44.69
2023-04-23T06:15:51.157Z,46.73
2023-04-23T06:16:51.088Z,44.69
2023-04-23T06:17:51.109Z,44.18
2023-04-23T06:18:51.066Z,45.00
2023-04-23T06:19:51.035Z,47.34
2023-04-23T06:20:51.028Z,44.69
2023-04-23T06:21:51.006Z,45.72
2023-04-23T06:22:50.994Z,46.22
2023-04-23T06:23:50.994Z,49.38
2023-04-23T06:24:50.962Z,45.20
2023-04-23T06:25:50.951Z,47.42
2023-04-23T06:26:50.960Z,48.16
2023-04-23T06:27:50.928Z,50.69
2023-04-23T06:28:50.923Z,49.98
2023-04-23T06:29:50.893Z,53.03
2023-04-23T06:30:50.889Z,50.92
2023-04-23T06:31:50.899Z,47.45
2023-04-23T06:32:49.639Z,48.34
2023-04-23T06:33:49.577Z,50.79
2023-04-23T06:35:00.956Z,56.02
2023-04-23T06:35:50.862Z,50.31
2023-04-23T06:36:49.371Z,52.25
2023-04-23T06:37:50.836Z,48.67
2023-04-23T06:38:51.289Z,49.67
2023-04-23T06:39:50.815Z,50.89
2023-04-23T06:40:49.486Z,51.12
2023-04-23T06:41:49.474Z,49.69
2023-04-23T06:42:50.790Z,47.45
2023-04-23T06:43:50.791Z,49.37
2023-04-23T06:44:49.588Z,49.79
2023-04-23T06:45:49.583Z,48.24
2023-04-23T06:46:50.767Z,46.30
2023-04-23T06:47:50.654Z,47.12
2023-04-23T06:48:50.643Z,49.16
2023-04-23T06:49:49.594Z,52.04
2023-04-23T06:50:50.614Z,47.75
2023-04-23T06:51:49.592Z,47.02
2023-04-23T06:52:50.584Z,47.32
2023-04-23T06:53:50.572Z,47.94
2023-04-23T06:54:50.553Z,55.07
2023-04-23T06:55:49.587Z,51.22
2023-04-23T06:56:49.591Z,49.26
2023-04-23T06:57:50.506Z,47.63
2023-04-23T06:58:50.506Z,51.68
2023-04-23T06:59:49.156Z,52.42
2023-04-23T07:00:50.485Z,51.30
2023-04-23T07:01:50.467Z,49.98
2023-04-23T07:02:50.512Z,54.26
2023-04-23T07:03:50.510Z,51.71
2023-04-23T07:04:50.451Z,52.34
2023-04-23T07:05:50.403Z,49.77
2023-04-23T07:06:50.396Z,52.01
2023-04-23T07:07:50.388Z,52.22
2023-04-23T07:08:50.385Z,57.14
2023-04-23T07:09:50.357Z,53.47
2023-04-23T07:10:50.354Z,50.61
2023-04-23T07:11:50.342Z,50.38
2023-04-23T07:12:48.890Z,52.83
2023-04-23T07:13:50.310Z,55.20
2023-04-23T07:14:50.300Z,52.93
2023-04-23T07:15:50.272Z,51.71
2023-04-23T07:16:50.347Z,53.75
2023-04-23T07:17:50.266Z,56.40
2023-04-23T07:18:50.261Z,57.01
2023-04-23T07:19:50.238Z,56.71
2023-04-23T07:20:48.818Z,55.71
2023-04-23T07:21:50.201Z,54.49
2023-04-23T07:22:50.200Z,53.55
2023-04-23T07:23:50.192Z,54.97
2023-04-23T07:24:50.166Z,53.64
2023-04-23T07:25:48.692Z,58.95
2023-04-23T07:26:50.130Z,57.52
2023-04-23T07:27:50.123Z,53.85
2023-04-23T07:28:52.554Z,54.85
2023-04-23T07:29:50.105Z,58.14
2023-04-23T07:30:50.083Z,59.05
2023-04-23T07:31:50.070Z,58.51
2023-04-23T07:32:50.067Z,59.33
2023-04-23T07:33:50.070Z,60.86
2023-04-23T07:34:50.026Z,62.90
2023-04-23T07:35:50.015Z,61.68
2023-04-23T07:36:49.987Z,63.92
2023-04-23T07:37:49.980Z,62.77
2023-04-23T07:38:49.978Z,64.22
2023-04-23T07:39:49.969Z,62.66
2023-04-23T07:40:49.941Z,63.28
2023-04-23T07:41:49.926Z,64.17
2023-04-23T07:42:49.922Z,67.63
2023-04-23T07:43:50.163Z,67.22
2023-04-23T07:44:48.888Z,68.17
2023-04-23T07:45:49.891Z,63.04
2023-04-23T07:46:49.873Z,65.01
2023-04-23T07:47:48.911Z,68.34
2023-04-23T07:48:49.848Z,67.60
2023-04-23T07:49:48.889Z,73.33
2023-04-23T07:50:49.819Z,69.15
2023-04-23T07:51:49.796Z,68.71
2023-04-23T07:52:49.782Z,71.77
2023-04-23T07:53:49.769Z,74.52
2023-04-23T07:54:49.772Z,67.97
2023-04-23T07:55:48.891Z,67.53
2023-04-23T07:56:48.962Z,75.87
2023-04-23T07:57:48.260Z,80.96
2023-04-23T07:58:49.708Z,79.02
2023-04-23T07:59:49.779Z,77.16
2023-04-23T08:00:48.211Z,80.31
2023-04-23T08:01:48.767Z,77.91
2023-04-23T08:02:48.304Z,78.05
2023-04-23T08:03:49.167Z,75.50
2023-04-23T08:04:49.844Z,73.54
2023-04-23T08:05:49.619Z,77.70
2023-04-23T08:06:49.612Z,77.20
2023-04-23T08:07:49.580Z,82.07
2023-04-23T08:08:49.551Z,82.38
2023-04-23T08:09:49.555Z,84.44
2023-04-23T08:10:49.540Z,88.30
2023-04-23T08:11:49.515Z,85.35
2023-04-23T08:12:49.512Z,85.05
2023-04-23T08:13:49.489Z,84.09
2023-04-23T08:14:49.488Z,85.62
2023-04-23T08:15:49.517Z,87.20
2023-04-23T08:16:49.440Z,90.45
2023-04-23T08:17:49.482Z,89.68
2023-04-23T08:19:03.716Z,87.85
2023-04-23T08:19:49.448Z,84.64
2023-04-23T08:20:49.396Z,83.73
2023-04-23T08:21:49.373Z,84.34
2023-04-23T08:22:49.370Z,82.10
2023-04-23T08:23:49.370Z,82.85
2023-04-23T08:24:49.354Z,84.99
2023-04-23T08:25:49.330Z,82.07
2023-04-23T08:26:49.322Z,80.45
2023-04-23T08:27:49.307Z,80.65
2023-04-23T08:28:49.291Z,81.93
2023-04-23T08:29:49.275Z,82.34
2023-04-23T08:30:49.284Z,82.75
2023-04-23T08:31:49.297Z,82.34
2023-04-23T08:32:49.276Z,81.93
2023-04-23T08:33:49.085Z,80.96
2023-04-23T08:34:49.243Z,80.62
2023-04-23T08:35:49.201Z,82.18
2023-04-23T08:36:47.747Z,79.70
2023-04-23T08:37:49.164Z,84.07
2023-04-23T08:38:48.904Z,79.43
2023-04-23T08:39:49.243Z,75.84
2023-04-23T08:40:49.129Z,82.71
2023-04-23T08:41:49.125Z,87.45
2023-04-23T08:42:49.098Z,86.39
2023-04-23T08:43:49.079Z,90.20
2023-04-23T08:44:49.088Z,92.64
2023-04-23T08:45:49.090Z,88.48
2023-04-23T08:46:49.090Z,89.84
2023-04-23T08:47:49.121Z,87.40
2023-04-23T08:48:47.564Z,86.39
2023-04-23T08:49:48.997Z,85.68
2023-04-23T08:50:49.005Z,88.99
2023-04-23T08:51:48.984Z,89.80
2023-04-23T08:52:48.971Z,93.37
2023-04-23T08:53:48.945Z,96.56
2023-04-23T08:54:48.936Z,95.86
2023-04-23T08:55:48.937Z,98.85
2023-04-23T08:56:47.445Z,99.99
2023-04-23T08:57:48.898Z,99.99
2023-04-23T08:58:48.906Z,99.99
2023-04-23T08:59:48.872Z,99.99
2023-04-23T09:00:48.898Z,99.99
2023-04-23T09:01:47.711Z,99.99
2023-04-23T09:02:48.991Z,99.72
2023-04-23T09:03:48.919Z,99.99
2023-04-23T09:04:50.256Z,99.82
2023-04-23T09:05:48.796Z,99.77
2023-04-23T09:06:48.760Z,99.99
2023-04-23T09:07:48.761Z,99.99
2023-04-23T09:08:48.768Z,99.99
2023-04-23T09:09:47.728Z,99.62
2023-04-23T09:10:48.718Z,99.05
2023-04-23T09:11:48.720Z,99.70
2023-04-23T09:12:47.729Z,96.81
2023-04-23T09:13:48.670Z,96.26
2023-04-23T09:14:48.660Z,99.35
2023-04-23T09:15:47.731Z,96.31
2023-04-23T09:16:48.714Z,93.88
2023-04-23T09:17:48.693Z,95.95
2023-04-23T09:18:48.620Z,94.34
2023-04-23T09:19:48.591Z,94.23
2023-04-23T09:20:48.581Z,95.00
2023-04-23T09:21:48.559Z,96.51
2023-04-23T09:22:48.554Z,97.58
2023-04-23T09:23:48.531Z,99.99
2023-04-23T09:24:48.529Z,99.10
2023-04-23T09:25:48.517Z,98.44
2023-04-23T09:26:48.503Z,97.63
2023-04-23T09:27:48.481Z,97.83
2023-04-23T09:28:49.526Z,99.01
2023-04-23T09:29:48.457Z,99.51
2023-04-23T09:30:48.455Z,99.21
2023-04-23T09:31:47.869Z,99.21
2023-04-23T09:32:48.508Z,99.99
2023-04-23T09:33:48.387Z,99.86
2023-04-23T09:34:48.384Z,99.50
2023-04-23T09:35:48.377Z,98.54
2023-04-23T09:36:48.356Z,96.41
2023-04-23T09:37:48.653Z,99.99
2023-04-23T09:38:48.330Z,97.33
2023-04-23T09:39:48.328Z,99.80
2023-04-23T09:40:48.311Z,99.10
2023-04-23T09:41:48.298Z,99.30
2023-04-23T09:42:48.273Z,99.99
2023-04-23T09:43:48.255Z,97.44
2023-04-23T09:44:48.244Z,99.99
2023-04-23T09:45:48.250Z,99.99
2023-04-23T09:46:48.229Z,99.99
2023-04-23T09:47:48.238Z,99.99
2023-04-23T09:48:48.194Z,99.99
2023-04-23T09:49:48.179Z,99.99
2023-04-23T09:50:48.174Z,99.99
2023-04-23T09:51:48.156Z,99.99
2023-04-23T09:52:48.142Z,99.94
2023-04-23T09:53:48.136Z,99.99
2023-04-23T09:54:48.113Z,98.11
2023-04-23T09:55:48.101Z,96.45
2023-04-23T09:56:48.121Z,99.99
2023-04-23T09:57:48.068Z,99.19
2023-04-23T09:58:48.061Z,91.37
2023-04-23T09:59:51.477Z,94.65
2023-04-23T10:00:49.031Z,80.83
2023-04-23T10:01:48.058Z,79.52
2023-04-23T10:02:48.173Z,75.12
2023-04-23T10:03:48.096Z,73.14
2023-04-23T10:04:47.565Z,69.35
2023-04-23T10:06:00.459Z,64.25
2023-04-23T10:06:57.944Z,60.49
2023-04-23T10:07:48.929Z,59.12
2023-04-23T10:08:47.890Z,61.19
2023-04-23T10:09:47.902Z,64.60
2023-04-23T10:11:02.468Z,64.77
2023-04-23T10:11:48.922Z,69.92
2023-04-23T10:12:54.868Z,76.46
2023-04-23T10:13:47.780Z,71.23
2023-04-23T10:14:47.835Z,73.82
2023-04-23T10:15:47.911Z,83.48
2023-04-23T10:16:49.316Z,79.44
2023-04-23T10:17:47.831Z,69.42
2023-04-23T10:18:47.005Z,68.08
2023-04-23T10:19:47.388Z,66.61
2023-04-23T10:20:47.765Z,65.71
2023-04-23T10:21:54.699Z,62.57
2023-04-23T10:22:47.769Z,61.51
2023-04-23T10:23:47.008Z,58.12
2023-04-23T10:24:49.432Z,60.41
2023-04-23T10:25:47.703Z,62.10
2023-04-23T10:26:47.678Z,60.14
2023-04-23T10:27:54.011Z,58.02
2023-04-23T10:28:48.302Z,56.71
2023-04-23T10:29:47.632Z,54.64
2023-04-23T10:30:47.633Z,56.74
2023-04-23T10:31:47.651Z,57.32
2023-04-23T10:32:47.670Z,55.02
2023-04-23T10:33:58.144Z,53.49
2023-04-23T10:34:48.633Z,54.64
2023-04-23T10:35:48.693Z,53.92
2023-04-23T10:36:47.537Z,55.44
2023-04-23T10:37:47.521Z,58.85
2023-04-23T10:38:57.256Z,56.49
2023-04-23T10:39:48.799Z,55.74
2023-04-23T10:40:47.497Z,55.59
2023-04-23T10:41:47.472Z,53.07
2023-04-23T10:42:47.464Z,55.37
2023-04-23T10:43:47.434Z,57.57
2023-04-23T10:44:58.004Z,57.57
2023-04-23T10:45:48.424Z,54.92
2023-04-23T10:46:47.439Z,54.54
2023-04-23T10:47:47.489Z,51.62
2023-04-23T10:48:47.374Z,51.67
2023-04-23T10:49:45.962Z,53.62
2023-04-23T10:51:02.351Z,54.55
2023-04-23T10:52:47.331Z,53.17
2023-04-23T10:53:47.368Z,57.41
2023-04-23T10:54:47.303Z,59.05
2023-04-23T10:55:47.319Z,59.65
2023-04-23T10:56:47.277Z,57.06
2023-04-23T10:57:47.269Z,54.63
2023-04-23T10:58:47.257Z,56.86
2023-04-23T10:59:47.232Z,54.88
2023-04-23T11:00:47.231Z,54.15
2023-04-23T11:01:47.215Z,55.43
2023-04-23T11:02:47.330Z,56.19
2023-04-23T11:03:47.376Z,55.91
2023-04-23T11:04:47.248Z,57.57
2023-04-23T11:05:47.167Z,59.79
2023-04-23T11:06:45.841Z,60.42
2023-04-23T11:07:47.122Z,59.28
2023-04-23T11:08:47.106Z,61.80
2023-04-23T11:09:47.103Z,58.28
2023-04-23T11:10:47.092Z,59.79
2023-04-23T11:11:47.064Z,57.15
2023-04-23T11:12:47.052Z,58.22
2023-04-23T11:13:47.042Z,54.15
2023-04-23T11:14:47.044Z,55.08
2023-04-23T11:15:45.901Z,54.43
2023-04-23T11:16:47.120Z,54.10
2023-04-23T11:17:47.025Z,56.95
2023-04-23T11:18:46.985Z,56.03
2023-04-23T11:19:46.962Z,56.93
2023-04-23T11:20:46.976Z,55.66
2023-04-23T11:21:46.940Z,57.14
2023-04-23T11:22:46.920Z,54.82
2023-04-23T11:23:46.911Z,53.32
2023-04-23T11:24:48.892Z,51.17
2023-04-23T11:25:46.899Z,52.39
2023-04-23T11:26:46.908Z,55.88
2023-04-23T11:27:45.881Z,55.33
2023-04-23T11:28:45.885Z,57.87
2023-04-23T11:29:45.982Z,59.60
2023-04-23T11:30:45.897Z,61.77
2023-04-23T11:32:00.950Z,62.10
2023-04-23T11:32:47.897Z,62.27
2023-04-23T11:33:46.777Z,61.34
2023-04-23T11:34:46.757Z,60.11
2023-04-23T11:35:46.757Z,62.95
2023-04-23T11:36:46.729Z,61.65
2023-04-23T11:37:46.718Z,59.45
2023-04-23T11:38:46.701Z,56.88
2023-04-23T11:39:46.689Z,56.65
2023-04-23T11:40:46.691Z,55.40
2023-04-23T11:41:46.658Z,54.74
2023-04-23T11:42:46.677Z,53.12
2023-04-23T11:43:46.649Z,52.69
2023-04-23T11:44:46.658Z,52.52
2023-04-23T11:45:46.626Z,54.00
2023-04-23T11:46:46.598Z,53.72
2023-04-23T11:47:46.606Z,53.77
2023-04-23T11:48:46.587Z,52.67
2023-04-23T11:49:46.930Z,52.47
2023-04-23T11:50:46.562Z,52.87
2023-04-23T11:51:46.541Z,55.00
2023-04-23T11:52:46.520Z,54.43
2023-04-23T11:53:46.508Z,56.03
2023-04-23T11:54:46.510Z,55.08
2023-04-23T11:55:46.639Z,55.33
2023-04-23T11:56:46.466Z,55.20
2023-04-23T11:57:46.468Z,52.72
2023-04-23T11:58:46.442Z,52.64
2023-04-23T11:59:46.430Z,52.69
2023-04-23T12:00:46.421Z,51.79
2023-04-23T12:01:46.410Z,51.42
2023-04-23T12:02:46.542Z,53.17
2023-04-23T12:03:46.476Z,53.27
2023-04-23T12:04:46.436Z,52.62
2023-04-23T12:05:46.508Z,51.92
2023-04-23T12:06:46.387Z,53.37
2023-04-23T12:07:46.317Z,55.53
2023-04-23T12:08:46.303Z,55.35
2023-04-23T12:09:46.292Z,55.33
2023-04-23T12:10:46.264Z,56.23
2023-04-23T12:11:46.278Z,55.51
2023-04-23T12:12:46.253Z,56.05
2023-04-23T12:13:46.236Z,54.02
2023-04-23T12:14:46.263Z,53.69
2023-04-23T12:15:46.274Z,51.54
2023-04-23T12:16:46.206Z,52.84
2023-04-23T12:17:46.218Z,52.74
2023-04-23T12:18:46.179Z,50.92
2023-04-23T12:19:46.323Z,51.17
2023-04-23T12:20:46.153Z,51.99
2023-04-23T12:21:46.144Z,53.55
2023-04-23T12:22:46.137Z,53.85
2023-04-23T12:23:45.706Z,52.94
2023-04-23T12:24:45.593Z,51.57
2023-04-23T12:25:46.092Z,50.52
2023-04-23T12:26:46.207Z,50.39
2023-04-23T12:27:46.069Z,47.11
2023-04-23T12:28:46.041Z,46.57
2023-04-23T12:29:46.017Z,46.25
2023-04-23T12:30:46.009Z,46.13
2023-04-23T12:31:45.215Z,46.69
2023-04-23T12:32:45.999Z,47.39
2023-04-23T12:33:45.548Z,47.31
2023-04-23T12:34:45.114Z,48.14
2023-04-23T12:35:45.936Z,47.55
2023-04-23T12:36:46.030Z,48.37
2023-04-23T12:37:45.920Z,47.30
2023-04-23T12:38:45.909Z,46.87
2023-04-23T12:39:44.599Z,47.94
2023-04-23T12:40:45.873Z,48.82
2023-04-23T12:41:45.883Z,49.04
2023-04-23T12:42:45.883Z,48.11
2023-04-23T12:43:45.833Z,46.55
2023-04-23T12:44:45.842Z,46.77
2023-04-23T12:45:45.854Z,46.53
2023-04-23T12:46:45.834Z,46.13
2023-04-23T12:47:45.868Z,45.81
2023-04-23T12:48:45.778Z,46.35
2023-04-23T12:49:45.896Z,45.53
2023-04-23T12:50:45.759Z,46.45
2023-04-23T12:51:45.787Z,47.09
2023-04-23T12:52:45.709Z,48.17
2023-04-23T12:53:45.723Z,48.39